Englewood, Colorado
Current Conditions -  °F | °C
As of 11:53 AM on Monday 20 Oct 2014 (Local Time) from KAPA Reporting Station
Few Clouds Few Clouds  
Wind Chill: 71°   Ceiling: Unl
Heat Index: 71°   Visibility: 10mi
Dew Point: 34°   Wind: 10mph
Humidity: 26%   Direction: 190°S
Pressure: 30.17"   Gusts: 22mph
Location:  39.65°N, 104.99°W
Report Text: KAPA 201753Z 19009G19KT 10SM FEW140 22/01 A3017 RMK AO2 SLP169 T02170011 10217 20067 58010
Loading
Personal Weather Stations






























Interactive Weather Map
Tropical Storm Tracking
New forecast layout! Learn more

10-Day Weather Forecast

Advertisements
Track Severe Weather on mobile